sensor_id;sensor_type;location;lat;lon;timestamp;P1;durP1;ratioP1;P2;durP2;ratioP2
70010;SDS011;59543;37.950;-122.338;2023-08-17T00:00:45;3.40;;;2.33;;
70010;SDS011;59543;37.950;-122.338;2023-08-17T00:03:11;6.57;;;2.65;;
70010;SDS011;59543;37.950;-122.338;2023-08-17T00:05:39;4.28;;;2.38;;
70010;SDS011;59543;37.950;-122.338;2023-08-17T00:08:06;3.65;;;2.15;;
70010;SDS011;59543;37.950;-122.338;2023-08-17T00:10:32;3.72;;;2.53;;
70010;SDS011;59543;37.950;-122.338;2023-08-17T00:12:58;6.10;;;2.72;;
70010;SDS011;59543;37.950;-122.338;2023-08-17T00:15:25;8.02;;;3.88;;
70010;SDS011;59543;37.950;-122.338;2023-08-17T00:17:51;8.20;;;4.60;;
70010;SDS011;59543;37.950;-122.338;2023-08-17T00:20:18;5.45;;;4.10;;
70010;SDS011;59543;37.950;-122.338;2023-08-17T00:22:44;8.93;;;4.10;;
70010;SDS011;59543;37.950;-122.338;2023-08-17T00:25:10;5.80;;;3.60;;
70010;SDS011;59543;37.950;-122.338;2023-08-17T00:27:37;5.15;;;4.03;;
70010;SDS011;59543;37.950;-122.338;2023-08-17T00:30:03;6.05;;;4.05;;
70010;SDS011;59543;37.950;-122.338;2023-08-17T00:32:30;5.25;;;3.90;;
70010;SDS011;59543;37.950;-122.338;2023-08-17T00:34:56;10.82;;;4.88;;
70010;SDS011;59543;37.950;-122.338;2023-08-17T00:37:23;7.35;;;5.05;;
70010;SDS011;59543;37.950;-122.338;2023-08-17T00:39:49;8.95;;;4.88;;
70010;SDS011;59543;37.950;-122.338;2023-08-17T00:42:15;7.20;;;4.93;;
70010;SDS011;59543;37.950;-122.338;2023-08-17T00:44:41;5.55;;;3.70;;
70010;SDS011;59543;37.950;-122.338;2023-08-17T00:47:08;7.43;;;3.95;;
70010;SDS011;59543;37.950;-122.338;2023-08-17T00:49:34;3.92;;;3.40;;
70010;SDS011;59543;37.950;-122.338;2023-08-17T00:52:01;6.57;;;3.80;;
70010;SDS011;59543;37.950;-122.338;2023-08-17T00:54:30;5.10;;;2.95;;
70010;SDS011;59543;37.950;-122.338;2023-08-17T00:56:57;3.80;;;2.80;;
70010;SDS011;59543;37.950;-122.338;2023-08-17T00:59:25;3.55;;;3.20;;
70010;SDS011;59543;37.950;-122.338;2023-08-17T01:01:51;4.22;;;3.25;;
70010;SDS011;59543;37.950;-122.338;2023-08-17T01:04:18;9.05;;;3.92;;
70010;SDS011;59543;37.950;-122.338;2023-08-17T01:06:44;6.47;;;3.22;;
70010;SDS011;59543;37.950;-122.338;2023-08-17T01:09:10;6.50;;;3.35;;
70010;SDS011;59543;37.950;-122.338;2023-08-17T01:11:48;6.47;;;3.22;;
70010;SDS011;59543;37.950;-122.338;2023-08-17T01:14:24;7.05;;;3.45;;
70010;SDS011;59543;37.950;-122.338;2023-08-17T01:19:50;3.97;;;2.55;;
70010;SDS011;59543;37.950;-122.338;2023-08-17T01:22:18;4.28;;;2.30;;
70010;SDS011;59543;37.950;-122.338;2023-08-17T01:24:48;4.05;;;2.10;;
70010;SDS011;59543;37.950;-122.338;2023-08-17T01:27:14;5.80;;;2.03;;
70010;SDS011;59543;37.950;-122.338;2023-08-17T01:29:40;3.60;;;1.90;;
70010;SDS011;59543;37.950;-122.338;2023-08-17T01:32:10;2.22;;;1.38;;
70010;SDS011;59543;37.950;-122.338;2023-08-17T01:34:44;2.45;;;1.60;;
70010;SDS011;59543;37.950;-122.338;2023-08-17T01:37:17;2.75;;;1.75;;
70010;SDS011;59543;37.950;-122.338;2023-08-17T01:39:47;5.55;;;1.58;;
70010;SDS011;59543;37.950;-122.338;2023-08-17T01:42:17;3.08;;;1.30;;
70010;SDS011;59543;37.950;-122.338;2023-08-17T01:44:45;3.00;;;1.00;;
70010;SDS011;59543;37.950;-122.338;2023-08-17T01:47:11;6.10;;;1.27;;
70010;SDS011;59543;37.950;-122.338;2023-08-17T01:49:38;1.75;;;0.95;;
70010;SDS011;59543;37.950;-122.338;2023-08-17T01:52:04;1.95;;;1.08;;
70010;SDS011;59543;37.950;-122.338;2023-08-17T01:54:31;3.85;;;1.20;;
70010;SDS011;59543;37.950;-122.338;2023-08-17T01:56:57;1.88;;;1.00;;
70010;SDS011;59543;37.950;-122.338;2023-08-17T01:59:24;3.55;;;1.20;;
70010;SDS011;59543;37.950;-122.338;2023-08-17T02:01:50;8.40;;;1.40;;
70010;SDS011;59543;37.950;-122.338;2023-08-17T02:04:16;1.92;;;0.93;;
70010;SDS011;59543;37.950;-122.338;2023-08-17T02:06:42;3.88;;;1.15;;
70010;SDS011;59543;37.950;-122.338;2023-08-17T02:09:08;5.13;;;1.52;;
70010;SDS011;59543;37.950;-122.338;2023-08-17T02:11:35;7.65;;;1.17;;
70010;SDS011;59543;37.950;-122.338;2023-08-17T02:14:01;2.95;;;1.25;;
70010;SDS011;59543;37.950;-122.338;2023-08-17T02:16:27;10.10;;;1.17;;
70010;SDS011;59543;37.950;-122.338;2023-08-17T02:18:53;4.65;;;1.25;;
70010;SDS011;59543;37.950;-122.338;2023-08-17T02:21:20;3.67;;;1.00;;
70010;SDS011;59543;37.950;-122.338;2023-08-17T02:23:46;7.57;;;1.00;;
70010;SDS011;59543;37.950;-122.338;2023-08-17T02:26:12;6.03;;;1.05;;
70010;SDS011;59543;37.950;-122.338;2023-08-17T02:28:38;6.28;;;0.90;;
70010;SDS011;59543;37.950;-122.338;2023-08-17T02:31:05;1.88;;;0.60;;
70010;SDS011;59543;37.950;-122.338;2023-08-17T02:33:31;3.38;;;0.80;;
70010;SDS011;59543;37.950;-122.338;2023-08-17T02:35:58;2.63;;;0.77;;
70010;SDS011;59543;37.950;-122.338;2023-08-17T02:38:26;2.10;;;0.98;;
70010;SDS011;59543;37.950;-122.338;2023-08-17T02:40:52;6.32;;;1.10;;
70010;SDS011;59543;37.950;-122.338;2023-08-17T02:43:19;5.00;;;1.10;;
70010;SDS011;59543;37.950;-122.338;2023-08-17T02:45:45;2.35;;;1.25;;
70010;SDS011;59543;37.950;-122.338;2023-08-17T02:48:11;3.75;;;1.40;;
70010;SDS011;59543;37.950;-122.338;2023-08-17T02:50:37;1.88;;;1.42;;
70010;SDS011;59543;37.950;-122.338;2023-08-17T02:53:04;5.20;;;1.70;;
70010;SDS011;59543;37.950;-122.338;2023-08-17T02:55:31;3.78;;;1.40;;
70010;SDS011;59543;37.950;-122.338;2023-08-17T02:57:57;4.25;;;1.40;;
70010;SDS011;59543;37.950;-122.338;2023-08-17T03:00:23;2.70;;;1.20;;
70010;SDS011;59543;37.950;-122.338;2023-08-17T03:02:49;2.10;;;1.50;;
70010;SDS011;59543;37.950;-122.338;2023-08-17T03:05:16;2.83;;;1.20;;
70010;SDS011;59543;37.950;-122.338;2023-08-17T03:07:42;3.00;;;1.23;;
70010;SDS011;59543;37.950;-122.338;2023-08-17T03:10:08;2.50;;;1.00;;
70010;SDS011;59543;37.950;-122.338;2023-08-17T03:12:35;3.40;;;1.05;;
70010;SDS011;59543;37.950;-122.338;2023-08-17T03:15:04;2.08;;;1.00;;
70010;SDS011;59543;37.950;-122.338;2023-08-17T03:17:31;1.15;;;1.05;;
70010;SDS011;59543;37.950;-122.338;2023-08-17T03:19:58;2.22;;;1.30;;
70010;SDS011;59543;37.950;-122.338;2023-08-17T03:22:25;5.10;;;1.50;;
70010;SDS011;59543;37.950;-122.338;2023-08-17T03:24:51;2.17;;;1.60;;
70010;SDS011;59543;37.950;-122.338;2023-08-17T03:27:20;3.28;;;1.50;;
70010;SDS011;59543;37.950;-122.338;2023-08-17T03:29:47;1.98;;;1.05;;
70010;SDS011;59543;37.950;-122.338;2023-08-17T03:32:13;4.35;;;1.60;;
70010;SDS011;59543;37.950;-122.338;2023-08-17T03:34:42;2.88;;;1.63;;
70010;SDS011;59543;37.950;-122.338;2023-08-17T03:37:08;2.80;;;1.30;;
70010;SDS011;59543;37.950;-122.338;2023-08-17T03:39:34;2.08;;;1.20;;
70010;SDS011;59543;37.950;-122.338;2023-08-17T03:42:00;3.10;;;1.25;;
70010;SDS011;59543;37.950;-122.338;2023-08-17T03:44:27;2.53;;;1.10;;
70010;SDS011;59543;37.950;-122.338;2023-08-17T03:46:53;2.38;;;1.38;;
70010;SDS011;59543;37.950;-122.338;2023-08-17T03:49:19;2.50;;;1.35;;
70010;SDS011;59543;37.950;-122.338;2023-08-17T03:51:45;2.28;;;1.58;;
70010;SDS011;59543;37.950;-122.338;2023-08-17T03:54:12;2.33;;;1.77;;
70010;SDS011;59543;37.950;-122.338;2023-08-17T03:56:38;5.10;;;2.10;;
70010;SDS011;59543;37.950;-122.338;2023-08-17T03:59:04;5.20;;;2.20;;
70010;SDS011;59543;37.950;-122.338;2023-08-17T04:01:31;3.70;;;2.47;;
70010;SDS011;59543;37.950;-122.338;2023-08-17T04:03:58;3.90;;;2.70;;
70010;SDS011;59543;37.950;-122.338;2023-08-17T04:06:24;6.22;;;2.90;;
70010;SDS011;59543;37.950;-122.338;2023-08-17T04:08:50;4.25;;;2.60;;
70010;SDS011;59543;37.950;-122.338;2023-08-17T04:11:16;6.38;;;2.78;;
70010;SDS011;59543;37.950;-122.338;2023-08-17T04:13:43;4.80;;;2.38;;
70010;SDS011;59543;37.950;-122.338;2023-08-17T04:16:09;4.10;;;2.45;;
70010;SDS011;59543;37.950;-122.338;2023-08-17T04:18:35;5.82;;;2.92;;
70010;SDS011;59543;37.950;-122.338;2023-08-17T04:21:02;9.48;;;3.30;;
70010;SDS011;59543;37.950;-122.338;2023-08-17T04:23:28;4.07;;;2.55;;
70010;SDS011;59543;37.950;-122.338;2023-08-17T04:25:54;5.15;;;3.17;;
70010;SDS011;59543;37.950;-122.338;2023-08-17T04:28:20;6.38;;;3.85;;
70010;SDS011;59543;37.950;-122.338;2023-08-17T04:30:47;3.05;;;1.90;;
70010;SDS011;59543;37.950;-122.338;2023-08-17T04:33:13;3.42;;;1.70;;
70010;SDS011;59543;37.950;-122.338;2023-08-17T04:35:39;2.25;;;1.30;;
70010;SDS011;59543;37.950;-122.338;2023-08-17T04:38:06;3.13;;;1.85;;
70010;SDS011;59543;37.950;-122.338;2023-08-17T04:40:33;3.58;;;2.58;;
70010;SDS011;59543;37.950;-122.338;2023-08-17T04:42:59;4.45;;;2.30;;
70010;SDS011;59543;37.950;-122.338;2023-08-17T04:45:25;5.10;;;2.50;;
70010;SDS011;59543;37.950;-122.338;2023-08-17T04:47:52;7.00;;;2.50;;
70010;SDS011;59543;37.950;-122.338;2023-08-17T04:50:18;4.40;;;2.67;;
70010;SDS011;59543;37.950;-122.338;2023-08-17T04:52:44;3.97;;;2.55;;
70010;SDS011;59543;37.950;-122.338;2023-08-17T04:55:11;3.53;;;2.67;;
70010;SDS011;59543;37.950;-122.338;2023-08-17T04:57:40;3.75;;;2.28;;
70010;SDS011;59543;37.950;-122.338;2023-08-17T05:00:06;4.00;;;1.92;;
70010;SDS011;59543;37.950;-122.338;2023-08-17T05:02:36;2.15;;;1.65;;
70010;SDS011;59543;37.950;-122.338;2023-08-17T05:05:04;3.42;;;1.75;;
70010;SDS011;59543;37.950;-122.338;2023-08-17T05:07:32;3.58;;;1.58;;
70010;SDS011;59543;37.950;-122.338;2023-08-17T05:09:58;1.45;;;1.35;;
70010;SDS011;59543;37.950;-122.338;2023-08-17T05:12:25;3.53;;;1.95;;
70010;SDS011;59543;37.950;-122.338;2023-08-17T05:14:52;2.53;;;2.33;;
70010;SDS011;59543;37.950;-122.338;2023-08-17T05:17:18;3.42;;;2.70;;
70010;SDS011;59543;37.950;-122.338;2023-08-17T05:19:44;4.50;;;2.58;;
70010;SDS011;59543;37.950;-122.338;2023-08-17T05:22:12;2.92;;;2.38;;
70010;SDS011;59543;37.950;-122.338;2023-08-17T05:24:38;3.63;;;2.30;;
70010;SDS011;59543;37.950;-122.338;2023-08-17T05:27:05;3.60;;;2.95;;
70010;SDS011;59543;37.950;-122.338;2023-08-17T05:29:31;3.58;;;3.28;;
70010;SDS011;59543;37.950;-122.338;2023-08-17T05:31:58;4.43;;;4.03;;
70010;SDS011;59543;37.950;-122.338;2023-08-17T05:34:24;3.63;;;3.22;;
70010;SDS011;59543;37.950;-122.338;2023-08-17T05:36:50;4.53;;;2.83;;
70010;SDS011;59543;37.950;-122.338;2023-08-17T05:39:16;2.70;;;2.50;;
70010;SDS011;59543;37.950;-122.338;2023-08-17T05:41:43;5.88;;;3.40;;
70010;SDS011;59543;37.950;-122.338;2023-08-17T05:44:09;3.30;;;3.00;;
70010;SDS011;59543;37.950;-122.338;2023-08-17T05:46:36;8.80;;;4.00;;
70010;SDS011;59543;37.950;-122.338;2023-08-17T05:49:02;4.40;;;3.30;;
70010;SDS011;59543;37.950;-122.338;2023-08-17T05:51:29;5.85;;;3.25;;
70010;SDS011;59543;37.950;-122.338;2023-08-17T05:53:56;3.20;;;2.90;;
70010;SDS011;59543;37.950;-122.338;2023-08-17T05:56:23;2.95;;;2.72;;
70010;SDS011;59543;37.950;-122.338;2023-08-17T05:58:49;4.10;;;3.38;;
70010;SDS011;59543;37.950;-122.338;2023-08-17T06:01:15;4.50;;;3.63;;
70010;SDS011;59543;37.950;-122.338;2023-08-17T06:03:41;5.03;;;4.50;;
70010;SDS011;59543;37.950;-122.338;2023-08-17T06:06:08;4.90;;;3.63;;
70010;SDS011;59543;37.950;-122.338;2023-08-17T06:08:35;3.33;;;2.92;;
70010;SDS011;59543;37.950;-122.338;2023-08-17T06:11:01;2.90;;;2.53;;
70010;SDS011;59543;37.950;-122.338;2023-08-17T06:13:27;2.88;;;2.42;;
70010;SDS011;59543;37.950;-122.338;2023-08-17T06:15:55;3.17;;;2.90;;
70010;SDS011;59543;37.950;-122.338;2023-08-17T06:18:22;3.90;;;3.40;;
70010;SDS011;59543;37.950;-122.338;2023-08-17T06:20:48;4.20;;;3.60;;
70010;SDS011;59543;37.950;-122.338;2023-08-17T06:23:19;8.73;;;3.53;;
70010;SDS011;59543;37.950;-122.338;2023-08-17T06:25:46;5.95;;;3.78;;
70010;SDS011;59543;37.950;-122.338;2023-08-17T06:28:12;4.97;;;3.90;;
70010;SDS011;59543;37.950;-122.338;2023-08-17T06:30:38;5.10;;;3.83;;
70010;SDS011;59543;37.950;-122.338;2023-08-17T06:33:04;3.92;;;3.15;;
70010;SDS011;59543;37.950;-122.338;2023-08-17T06:35:31;3.53;;;2.90;;
70010;SDS011;59543;37.950;-122.338;2023-08-17T06:37:57;5.97;;;2.80;;
70010;SDS011;59543;37.950;-122.338;2023-08-17T06:40:24;3.35;;;3.05;;
70010;SDS011;59543;37.950;-122.338;2023-08-17T06:42:50;3.33;;;3.00;;
70010;SDS011;59543;37.950;-122.338;2023-08-17T06:45:17;5.28;;;3.35;;
70010;SDS011;59543;37.950;-122.338;2023-08-17T06:47:44;6.50;;;3.70;;
70010;SDS011;59543;37.950;-122.338;2023-08-17T06:50:11;8.43;;;4.47;;
70010;SDS011;59543;37.950;-122.338;2023-08-17T06:52:37;5.97;;;4.32;;
70010;SDS011;59543;37.950;-122.338;2023-08-17T06:55:04;4.05;;;3.65;;
70010;SDS011;59543;37.950;-122.338;2023-08-17T06:57:31;3.97;;;3.25;;
70010;SDS011;59543;37.950;-122.338;2023-08-17T06:59:57;3.22;;;2.60;;
70010;SDS011;59543;37.950;-122.338;2023-08-17T07:02:23;2.80;;;1.92;;
70010;SDS011;59543;37.950;-122.338;2023-08-17T07:04:49;3.28;;;2.47;;
70010;SDS011;59543;37.950;-122.338;2023-08-17T07:07:16;2.95;;;2.15;;
70010;SDS011;59543;37.950;-122.338;2023-08-17T07:09:42;2.53;;;1.90;;
70010;SDS011;59543;37.950;-122.338;2023-08-17T07:12:08;2.60;;;1.80;;
70010;SDS011;59543;37.950;-122.338;2023-08-17T07:14:34;3.28;;;1.40;;
70010;SDS011;59543;37.950;-122.338;2023-08-17T07:17:01;1.00;;;0.90;;
70010;SDS011;59543;37.950;-122.338;2023-08-17T07:19:27;2.25;;;1.17;;
70010;SDS011;59543;37.950;-122.338;2023-08-17T07:21:53;1.55;;;1.02;;
70010;SDS011;59543;37.950;-122.338;2023-08-17T07:24:19;1.90;;;1.10;;
70010;SDS011;59543;37.950;-122.338;2023-08-17T07:26:46;3.22;;;1.23;;
70010;SDS011;59543;37.950;-122.338;2023-08-17T07:29:12;3.03;;;1.35;;
70010;SDS011;59543;37.950;-122.338;2023-08-17T07:31:38;2.63;;;1.30;;
70010;SDS011;59543;37.950;-122.338;2023-08-17T07:34:05;1.60;;;1.10;;
70010;SDS011;59543;37.950;-122.338;2023-08-17T07:36:32;1.10;;;1.00;;
70010;SDS011;59543;37.950;-122.338;2023-08-17T07:38:59;1.23;;;1.02;;
70010;SDS011;59543;37.950;-122.338;2023-08-17T07:41:25;1.77;;;0.90;;
70010;SDS011;59543;37.950;-122.338;2023-08-17T07:43:52;0.80;;;0.80;;
70010;SDS011;59543;37.950;-122.338;2023-08-17T07:46:18;2.50;;;0.95;;
70010;SDS011;59543;37.950;-122.338;2023-08-17T07:48:45;1.50;;;0.70;;
70010;SDS011;59543;37.950;-122.338;2023-08-17T07:51:11;1.23;;;0.80;;
70010;SDS011;59543;37.950;-122.338;2023-08-17T07:53:38;1.45;;;0.95;;
70010;SDS011;59543;37.950;-122.338;2023-08-17T07:56:05;0.98;;;0.80;;
70010;SDS011;59543;37.950;-122.338;2023-08-17T07:58:31;1.00;;;0.90;;
70010;SDS011;59543;37.950;-122.338;2023-08-17T08:00:57;1.90;;;0.80;;
70010;SDS011;59543;37.950;-122.338;2023-08-17T08:03:24;1.00;;;0.90;;
70010;SDS011;59543;37.950;-122.338;2023-08-17T08:05:50;1.25;;;1.10;;
70010;SDS011;59543;37.950;-122.338;2023-08-17T08:08:17;1.80;;;1.15;;
70010;SDS011;59543;37.950;-122.338;2023-08-17T08:10:45;3.00;;;1.75;;
70010;SDS011;59543;37.950;-122.338;2023-08-17T08:13:11;1.17;;;1.08;;
70010;SDS011;59543;37.950;-122.338;2023-08-17T08:15:38;1.35;;;1.08;;
70010;SDS011;59543;37.950;-122.338;2023-08-17T08:18:04;1.45;;;1.20;;
70010;SDS011;59543;37.950;-122.338;2023-08-17T08:20:31;1.27;;;1.13;;
70010;SDS011;59543;37.950;-122.338;2023-08-17T08:22:57;1.38;;;1.08;;
70010;SDS011;59543;37.950;-122.338;2023-08-17T08:25:24;1.02;;;0.95;;
70010;SDS011;59543;37.950;-122.338;2023-08-17T08:27:50;1.40;;;1.10;;
70010;SDS011;59543;37.950;-122.338;2023-08-17T08:30:16;1.10;;;1.00;;
70010;SDS011;59543;37.950;-122.338;2023-08-17T08:32:43;0.70;;;0.65;;
70010;SDS011;59543;37.950;-122.338;2023-08-17T08:35:09;1.88;;;1.10;;
70010;SDS011;59543;37.950;-122.338;2023-08-17T08:37:36;1.20;;;1.10;;
70010;SDS011;59543;37.950;-122.338;2023-08-17T08:40:02;0.80;;;0.80;;
70010;SDS011;59543;37.950;-122.338;2023-08-17T08:42:29;1.20;;;1.10;;
70010;SDS011;59543;37.950;-122.338;2023-08-17T08:44:55;0.93;;;0.88;;
70010;SDS011;59543;37.950;-122.338;2023-08-17T08:47:22;1.20;;;1.10;;
70010;SDS011;59543;37.950;-122.338;2023-08-17T08:49:50;1.92;;;1.00;;
70010;SDS011;59543;37.950;-122.338;2023-08-17T08:52:40;3.25;;;1.10;;
70010;SDS011;59543;37.950;-122.338;2023-08-17T08:55:11;1.90;;;1.08;;
70010;SDS011;59543;37.950;-122.338;2023-08-17T08:57:41;1.92;;;1.20;;
70010;SDS011;59543;37.950;-122.338;2023-08-17T09:00:08;1.08;;;0.95;;
70010;SDS011;59543;37.950;-122.338;2023-08-17T09:02:35;1.30;;;1.20;;
70010;SDS011;59543;37.950;-122.338;2023-08-17T09:05:01;1.38;;;0.88;;
70010;SDS011;59543;37.950;-122.338;2023-08-17T09:07:31;2.65;;;0.82;;
70010;SDS011;59543;37.950;-122.338;2023-08-17T09:09:59;2.63;;;0.82;;
70010;SDS011;59543;37.950;-122.338;2023-08-17T09:12:25;1.13;;;1.08;;
70010;SDS011;59543;37.950;-122.338;2023-08-17T09:14:51;3.67;;;0.57;;
70010;SDS011;59543;37.950;-122.338;2023-08-17T09:17:27;11.10;;;0.70;;
70010;SDS011;59543;37.950;-122.338;2023-08-17T09:19:54;0.70;;;0.50;;
70010;SDS011;59543;37.950;-122.338;2023-08-17T09:25:06;2.05;;;0.50;;
70010;SDS011;59543;37.950;-122.338;2023-08-17T09:27:33;2.25;;;0.55;;
70010;SDS011;59543;37.950;-122.338;2023-08-17T09:30:04;0.88;;;0.40;;
70010;SDS011;59543;37.950;-122.338;2023-08-17T09:32:32;0.80;;;0.80;;
70010;SDS011;59543;37.950;-122.338;2023-08-17T09:35:03;4.03;;;1.13;;
70010;SDS011;59543;37.950;-122.338;2023-08-17T09:37:31;0.80;;;0.60;;
70010;SDS011;59543;37.950;-122.338;2023-08-17T09:39:57;1.42;;;0.55;;
70010;SDS011;59543;37.950;-122.338;2023-08-17T09:42:24;0.80;;;0.60;;
70010;SDS011;59543;37.950;-122.338;2023-08-17T09:44:52;1.23;;;0.60;;
70010;SDS011;59543;37.950;-122.338;2023-08-17T09:47:19;0.65;;;0.40;;
70010;SDS011;59543;37.950;-122.338;2023-08-17T09:49:50;2.60;;;0.30;;
70010;SDS011;59543;37.950;-122.338;2023-08-17T09:52:18;2.70;;;0.70;;
70010;SDS011;59543;37.950;-122.338;2023-08-17T09:54:49;2.53;;;0.60;;
70010;SDS011;59543;37.950;-122.338;2023-08-17T09:57:17;1.88;;;0.77;;
70010;SDS011;59543;37.950;-122.338;2023-08-17T09:59:44;1.15;;;0.80;;
70010;SDS011;59543;37.950;-122.338;2023-08-17T10:02:18;2.92;;;1.05;;
70010;SDS011;59543;37.950;-122.338;2023-08-17T10:04:53;2.05;;;0.65;;
70010;SDS011;59543;37.950;-122.338;2023-08-17T10:07:26;2.88;;;0.85;;
70010;SDS011;59543;37.950;-122.338;2023-08-17T10:09:58;1.08;;;0.98;;
70010;SDS011;59543;37.950;-122.338;2023-08-17T10:12:28;1.35;;;1.13;;
70010;SDS011;59543;37.950;-122.338;2023-08-17T10:15:06;3.65;;;1.10;;
70010;SDS011;59543;37.950;-122.338;2023-08-17T10:17:49;8.02;;;1.20;;
70010;SDS011;59543;37.950;-122.338;2023-08-17T10:20:30;2.88;;;1.23;;
70010;SDS011;59543;37.950;-122.338;2023-08-17T10:23:01;1.00;;;1.00;;
70010;SDS011;59543;37.950;-122.338;2023-08-17T10:25:37;3.22;;;1.00;;
70010;SDS011;59543;37.950;-122.338;2023-08-17T10:28:05;6.50;;;1.13;;
70010;SDS011;59543;37.950;-122.338;2023-08-17T10:30:33;2.85;;;1.02;;
70010;SDS011;59543;37.950;-122.338;2023-08-17T10:32:59;2.65;;;0.80;;
70010;SDS011;59543;37.950;-122.338;2023-08-17T10:35:26;8.05;;;0.65;;
70010;SDS011;59543;37.950;-122.338;2023-08-17T10:37:53;4.68;;;0.47;;
70010;SDS011;59543;37.950;-122.338;2023-08-17T10:40:33;1.33;;;0.43;;
70010;SDS011;59543;37.950;-122.338;2023-08-17T10:43:01;4.57;;;0.50;;
70010;SDS011;59543;37.950;-122.338;2023-08-17T10:45:31;12.45;;;0.63;;
70010;SDS011;59543;37.950;-122.338;2023-08-17T10:48:00;1.08;;;0.38;;
70010;SDS011;59543;37.950;-122.338;2023-08-17T10:50:44;1.08;;;0.40;;
70010;SDS011;59543;37.950;-122.338;2023-08-17T10:53:25;1.50;;;0.30;;
70010;SDS011;59543;37.950;-122.338;2023-08-17T10:55:54;3.60;;;0.40;;
70010;SDS011;59543;37.950;-122.338;2023-08-17T10:58:23;0.65;;;0.40;;
70010;SDS011;59543;37.950;-122.338;2023-08-17T11:00:54;0.43;;;0.30;;
70010;SDS011;59543;37.950;-122.338;2023-08-17T11:03:22;0.90;;;0.55;;
70010;SDS011;59543;37.950;-122.338;2023-08-17T11:05:52;0.80;;;0.50;;
70010;SDS011;59543;37.950;-122.338;2023-08-17T11:11:06;1.40;;;0.65;;
70010;SDS011;59543;37.950;-122.338;2023-08-17T11:13:34;1.67;;;0.80;;
70010;SDS011;59543;37.950;-122.338;2023-08-17T11:16:02;0.88;;;0.60;;
70010;SDS011;59543;37.950;-122.338;2023-08-17T11:18:29;0.50;;;0.40;;
70010;SDS011;59543;37.950;-122.338;2023-08-17T11:20:59;2.72;;;0.80;;
70010;SDS011;59543;37.950;-122.338;2023-08-17T11:23:32;0.80;;;0.50;;
70010;SDS011;59543;37.950;-122.338;2023-08-17T11:25:59;0.60;;;0.43;;
70010;SDS011;59543;37.950;-122.338;2023-08-17T11:28:26;2.53;;;0.43;;
70010;SDS011;59543;37.950;-122.338;2023-08-17T11:31:03;0.80;;;0.50;;
70010;SDS011;59543;37.950;-122.338;2023-08-17T11:33:30;0.60;;;0.40;;
70010;SDS011;59543;37.950;-122.338;2023-08-17T11:35:58;0.32;;;0.30;;
70010;SDS011;59543;37.950;-122.338;2023-08-17T11:38:26;0.70;;;0.30;;
70010;SDS011;59543;37.950;-122.338;2023-08-17T11:40:59;2.63;;;0.38;;
70010;SDS011;59543;37.950;-122.338;2023-08-17T11:43:26;0.80;;;0.20;;
70010;SDS011;59543;37.950;-122.338;2023-08-17T11:45:54;1.17;;;0.40;;
70010;SDS011;59543;37.950;-122.338;2023-08-17T11:48:21;1.00;;;0.30;;
70010;SDS011;59543;37.950;-122.338;2023-08-17T11:50:48;1.02;;;0.22;;
70010;SDS011;59543;37.950;-122.338;2023-08-17T11:53:15;1.90;;;0.20;;
70010;SDS011;59543;37.950;-122.338;2023-08-17T11:55:41;0.65;;;0.20;;
70010;SDS011;59543;37.950;-122.338;2023-08-17T11:58:07;1.60;;;0.35;;
70010;SDS011;59543;37.950;-122.338;2023-08-17T12:00:39;4.03;;;0.50;;
70010;SDS011;59543;37.950;-122.338;2023-08-17T12:03:06;2.58;;;0.35;;
70010;SDS011;59543;37.950;-122.338;2023-08-17T12:05:33;3.67;;;0.50;;
70010;SDS011;59543;37.950;-122.338;2023-08-17T12:08:00;1.58;;;0.30;;
70010;SDS011;59543;37.950;-122.338;2023-08-17T12:10:27;0.50;;;0.28;;
70010;SDS011;59543;37.950;-122.338;2023-08-17T12:12:57;0.35;;;0.17;;
70010;SDS011;59543;37.950;-122.338;2023-08-17T12:15:29;0.70;;;0.28;;
70010;SDS011;59543;37.950;-122.338;2023-08-17T12:18:02;0.50;;;0.30;;
70010;SDS011;59543;37.950;-122.338;2023-08-17T12:20:29;0.93;;;0.40;;
70010;SDS011;59543;37.950;-122.338;2023-08-17T12:23:00;2.40;;;0.22;;
70010;SDS011;59543;37.950;-122.338;2023-08-17T12:25:28;0.22;;;0.10;;
70010;SDS011;59543;37.950;-122.338;2023-08-17T12:27:57;0.82;;;0.30;;
70010;SDS011;59543;37.950;-122.338;2023-08-17T12:30:29;1.75;;;0.40;;
70010;SDS011;59543;37.950;-122.338;2023-08-17T12:32:58;0.68;;;0.35;;
70010;SDS011;59543;37.950;-122.338;2023-08-17T12:35:25;0.57;;;0.30;;
70010;SDS011;59543;37.950;-122.338;2023-08-17T12:37:52;1.05;;;0.25;;
70010;SDS011;59543;37.950;-122.338;2023-08-17T12:40:19;0.90;;;0.30;;
70010;SDS011;59543;37.950;-122.338;2023-08-17T12:42:47;1.20;;;0.22;;
70010;SDS011;59543;37.950;-122.338;2023-08-17T12:45:14;1.50;;;0.50;;
70010;SDS011;59543;37.950;-122.338;2023-08-17T12:47:40;0.60;;;0.60;;
70010;SDS011;59543;37.950;-122.338;2023-08-17T12:50:07;1.85;;;1.00;;
70010;SDS011;59543;37.950;-122.338;2023-08-17T12:52:34;1.60;;;0.60;;
70010;SDS011;59543;37.950;-122.338;2023-08-17T12:55:00;3.35;;;0.50;;
70010;SDS011;59543;37.950;-122.338;2023-08-17T12:57:27;1.05;;;0.30;;
70010;SDS011;59543;37.950;-122.338;2023-08-17T12:59:53;0.77;;;0.43;;
70010;SDS011;59543;37.950;-122.338;2023-08-17T13:02:20;0.52;;;0.30;;
70010;SDS011;59543;37.950;-122.338;2023-08-17T13:04:46;1.00;;;0.20;;
70010;SDS011;59543;37.950;-122.338;2023-08-17T13:07:13;0.63;;;0.28;;
70010;SDS011;59543;37.950;-122.338;2023-08-17T13:09:41;1.75;;;0.35;;
70010;SDS011;59543;37.950;-122.338;2023-08-17T13:12:07;1.33;;;0.40;;
70010;SDS011;59543;37.950;-122.338;2023-08-17T13:14:33;1.33;;;0.30;;
70010;SDS011;59543;37.950;-122.338;2023-08-17T13:17:00;0.73;;;0.10;;
70010;SDS011;59543;37.950;-122.338;2023-08-17T13:19:26;1.58;;;0.30;;
70010;SDS011;59543;37.950;-122.338;2023-08-17T13:21:52;2.25;;;0.35;;
70010;SDS011;59543;37.950;-122.338;2023-08-17T13:24:19;1.27;;;0.30;;
70010;SDS011;59543;37.950;-122.338;2023-08-17T13:26:45;0.93;;;0.30;;
70010;SDS011;59543;37.950;-122.338;2023-08-17T13:29:11;1.30;;;0.30;;
70010;SDS011;59543;37.950;-122.338;2023-08-17T13:31:37;2.92;;;0.13;;
70010;SDS011;59543;37.950;-122.338;2023-08-17T13:34:04;1.27;;;0.30;;
70010;SDS011;59543;37.950;-122.338;2023-08-17T13:36:30;1.05;;;0.38;;
70010;SDS011;59543;37.950;-122.338;2023-08-17T13:38:56;2.28;;;0.47;;
70010;SDS011;59543;37.950;-122.338;2023-08-17T13:41:22;1.25;;;0.40;;
70010;SDS011;59543;37.950;-122.338;2023-08-17T13:43:50;1.42;;;0.30;;
70010;SDS011;59543;37.950;-122.338;2023-08-17T13:46:16;2.50;;;0.60;;
70010;SDS011;59543;37.950;-122.338;2023-08-17T13:48:42;1.08;;;0.50;;
70010;SDS011;59543;37.950;-122.338;2023-08-17T13:51:09;3.00;;;0.50;;
70010;SDS011;59543;37.950;-122.338;2023-08-17T13:53:36;0.77;;;0.38;;
70010;SDS011;59543;37.950;-122.338;2023-08-17T13:56:03;1.60;;;0.40;;
70010;SDS011;59543;37.950;-122.338;2023-08-17T13:58:29;1.80;;;0.40;;
70010;SDS011;59543;37.950;-122.338;2023-08-17T14:00:55;0.60;;;0.30;;
70010;SDS011;59543;37.950;-122.338;2023-08-17T14:03:22;1.48;;;0.40;;
70010;SDS011;59543;37.950;-122.338;2023-08-17T14:05:48;0.75;;;0.50;;
70010;SDS011;59543;37.950;-122.338;2023-08-17T14:08:15;0.40;;;0.30;;
70010;SDS011;59543;37.950;-122.338;2023-08-17T14:10:41;0.52;;;0.40;;
70010;SDS011;59543;37.950;-122.338;2023-08-17T14:13:07;1.83;;;0.50;;
70010;SDS011;59543;37.950;-122.338;2023-08-17T14:15:34;0.47;;;0.32;;
70010;SDS011;59543;37.950;-122.338;2023-08-17T14:18:00;1.45;;;0.45;;